sensor_id;sensor_type;location;lat;lon;timestamp;temperature;humidity
46562;DHT22;32289;42.688;23.330;2022-09-09T00:02:28;17.50;96.70
46562;DHT22;32289;42.688;23.330;2022-09-09T00:06:31;17.50;97.20
46562;DHT22;32289;42.688;23.330;2022-09-09T00:10:41;17.50;97.30
46562;DHT22;32289;42.688;23.330;2022-09-09T00:14:47;17.30;98.20
46562;DHT22;32289;42.688;23.330;2022-09-09T00:22:29;17.30;98.90
46562;DHT22;32289;42.688;23.330;2022-09-09T00:30:28;17.10;99.90
46562;DHT22;32289;42.688;23.330;2022-09-09T00:34:21;17.20;99.90
46562;DHT22;32289;42.688;23.330;2022-09-09T00:42:15;17.10;99.90
46562;DHT22;32289;42.688;23.330;2022-09-09T00:54:35;16.60;99.90
46562;DHT22;32289;42.688;23.330;2022-09-09T00:58:18;16.90;99.90
46562;DHT22;32289;42.688;23.330;2022-09-09T01:01:59;17.00;99.90
46562;DHT22;32289;42.688;23.330;2022-09-09T01:06:29;17.00;99.90
46562;DHT22;32289;42.688;23.330;2022-09-09T01:10:36;16.90;99.90
46562;DHT22;32289;42.688;23.330;2022-09-09T01:14:37;16.80;99.90
46562;DHT22;32289;42.688;23.330;2022-09-09T01:18:23;16.70;99.90
46562;DHT22;32289;42.688;23.330;2022-09-09T01:22:32;16.80;99.90
46562;DHT22;32289;42.688;23.330;2022-09-09T01:29:57;16.80;99.90
46562;DHT22;32289;42.688;23.330;2022-09-09T01:33:40;16.90;99.90
46562;DHT22;32289;42.688;23.330;2022-09-09T01:37:20;16.90;99.90
46562;DHT22;32289;42.688;23.330;2022-09-09T01:41:01;16.70;99.90
46562;DHT22;32289;42.688;23.330;2022-09-09T01:44:42;16.70;99.90
46562;DHT22;32289;42.688;23.330;2022-09-09T01:48:23;16.80;99.90
46562;DHT22;32289;42.688;23.330;2022-09-09T01:52:05;16.70;99.90
46562;DHT22;32289;42.688;23.330;2022-09-09T01:56:01;16.60;99.90
46562;DHT22;32289;42.688;23.330;2022-09-09T02:00:08;16.60;99.90
46562;DHT22;32289;42.688;23.330;2022-09-09T02:03:56;16.60;99.90
46562;DHT22;32289;42.688;23.330;2022-09-09T02:07:42;16.60;99.90
46562;DHT22;32289;42.688;23.330;2022-09-09T02:11:27;16.50;99.90
46562;DHT22;32289;42.688;23.330;2022-09-09T02:15:20;16.40;99.90
46562;DHT22;32289;42.688;23.330;2022-09-09T02:19:12;16.40;99.90
46562;DHT22;32289;42.688;23.330;2022-09-09T02:22:56;16.50;99.90
46562;DHT22;32289;42.688;23.330;2022-09-09T02:26:40;16.40;99.90
46562;DHT22;32289;42.688;23.330;2022-09-09T02:30:21;16.40;99.90
46562;DHT22;32289;42.688;23.330;2022-09-09T02:34:03;16.40;99.90
46562;DHT22;32289;42.688;23.330;2022-09-09T02:37:46;16.40;99.90
46562;DHT22;32289;42.688;23.330;2022-09-09T02:41:31;16.40;99.90
46562;DHT22;32289;42.688;23.330;2022-09-09T02:45:15;16.60;99.90
46562;DHT22;32289;42.688;23.330;2022-09-09T02:49:00;16.40;99.90
46562;DHT22;32289;42.688;23.330;2022-09-09T02:56:40;16.30;99.90
46562;DHT22;32289;42.688;23.330;2022-09-09T03:00:24;16.40;99.90
46562;DHT22;32289;42.688;23.330;2022-09-09T03:04:06;16.30;99.90
46562;DHT22;32289;42.688;23.330;2022-09-09T03:07:47;16.30;99.90
46562;DHT22;32289;42.688;23.330;2022-09-09T03:11:28;16.20;99.90
46562;DHT22;32289;42.688;23.330;2022-09-09T03:15:09;16.20;99.90
46562;DHT22;32289;42.688;23.330;2022-09-09T03:18:50;16.30;99.90
46562;DHT22;32289;42.688;23.330;2022-09-09T03:22:31;16.20;99.90
46562;DHT22;32289;42.688;23.330;2022-09-09T03:26:12;16.30;99.90
46562;DHT22;32289;42.688;23.330;2022-09-09T03:29:55;16.20;99.90
46562;DHT22;32289;42.688;23.330;2022-09-09T03:33:39;16.20;99.90
46562;DHT22;32289;42.688;23.330;2022-09-09T03:37:21;16.10;99.90
46562;DHT22;32289;42.688;23.330;2022-09-09T03:41:02;16.00;99.90
46562;DHT22;32289;42.688;23.330;2022-09-09T03:44:47;15.90;99.90
46562;DHT22;32289;42.688;23.330;2022-09-09T03:48:31;16.00;99.90
46562;DHT22;32289;42.688;23.330;2022-09-09T03:52:12;15.90;99.90
46562;DHT22;32289;42.688;23.330;2022-09-09T03:55:54;15.90;99.90
46562;DHT22;32289;42.688;23.330;2022-09-09T03:59:35;15.80;99.90
46562;DHT22;32289;42.688;23.330;2022-09-09T04:03:16;15.50;99.90
46562;DHT22;32289;42.688;23.330;2022-09-09T04:06:57;15.70;99.90
46562;DHT22;32289;42.688;23.330;2022-09-09T04:10:38;15.90;99.90
46562;DHT22;32289;42.688;23.330;2022-09-09T04:14:19;15.90;99.90
46562;DHT22;32289;42.688;23.330;2022-09-09T04:18:00;15.90;99.90
46562;DHT22;32289;42.688;23.330;2022-09-09T04:21:41;15.80;99.90
46562;DHT22;32289;42.688;23.330;2022-09-09T04:25:22;15.80;99.90
46562;DHT22;32289;42.688;23.330;2022-09-09T04:29:09;15.90;99.90
46562;DHT22;32289;42.688;23.330;2022-09-09T04:32:50;16.00;99.90
46562;DHT22;32289;42.688;23.330;2022-09-09T04:36:32;16.00;99.90
46562;DHT22;32289;42.688;23.330;2022-09-09T04:40:13;16.10;99.90
46562;DHT22;32289;42.688;23.330;2022-09-09T04:43:53;16.20;99.90
46562;DHT22;32289;42.688;23.330;2022-09-09T04:47:34;16.30;99.90
46562;DHT22;32289;42.688;23.330;2022-09-09T04:51:16;16.50;99.90
46562;DHT22;32289;42.688;23.330;2022-09-09T04:54:57;16.50;99.90
46562;DHT22;32289;42.688;23.330;2022-09-09T04:58:39;16.40;99.90
46562;DHT22;32289;42.688;23.330;2022-09-09T05:02:23;16.30;99.90
46562;DHT22;32289;42.688;23.330;2022-09-09T05:06:06;16.70;99.90
46562;DHT22;32289;42.688;23.330;2022-09-09T05:09:47;16.60;99.90
46562;DHT22;32289;42.688;23.330;2022-09-09T05:13:29;16.60;99.90
46562;DHT22;32289;42.688;23.330;2022-09-09T05:17:12;16.70;99.90
46562;DHT22;32289;42.688;23.330;2022-09-09T05:20:59;16.80;99.90
46562;DHT22;32289;42.688;23.330;2022-09-09T05:24:40;17.00;99.90
46562;DHT22;32289;42.688;23.330;2022-09-09T05:28:21;17.10;99.90
46562;DHT22;32289;42.688;23.330;2022-09-09T05:32:02;17.10;99.90
46562;DHT22;32289;42.688;23.330;2022-09-09T05:35:43;17.20;99.90
46562;DHT22;32289;42.688;23.330;2022-09-09T05:39:24;17.40;99.90
46562;DHT22;32289;42.688;23.330;2022-09-09T05:43:04;17.90;99.90
46562;DHT22;32289;42.688;23.330;2022-09-09T05:46:45;17.90;99.40
46562;DHT22;32289;42.688;23.330;2022-09-09T05:50:26;18.00;98.90
46562;DHT22;32289;42.688;23.330;2022-09-09T05:54:07;19.60;94.70
46562;DHT22;32289;42.688;23.330;2022-09-09T05:57:48;21.00;87.70
46562;DHT22;32289;42.688;23.330;2022-09-09T06:01:32;19.80;92.10
46562;DHT22;32289;42.688;23.330;2022-09-09T06:05:13;19.60;91.80
46562;DHT22;32289;42.688;23.330;2022-09-09T06:08:56;20.20;90.90
46562;DHT22;32289;42.688;23.330;2022-09-09T06:12:38;21.40;83.00
46562;DHT22;32289;42.688;23.330;2022-09-09T06:16:21;21.30;82.00
46562;DHT22;32289;42.688;23.330;2022-09-09T06:20:04;21.40;81.50
46562;DHT22;32289;42.688;23.330;2022-09-09T06:23:46;22.00;76.90
46562;DHT22;32289;42.688;23.330;2022-09-09T06:27:28;21.10;81.80
46562;DHT22;32289;42.688;23.330;2022-09-09T06:31:11;21.20;79.50
46562;DHT22;32289;42.688;23.330;2022-09-09T06:34:52;21.20;80.40
46562;DHT22;32289;42.688;23.330;2022-09-09T06:38:33;21.40;79.40
46562;DHT22;32289;42.688;23.330;2022-09-09T06:42:13;22.40;75.60
46562;DHT22;32289;42.688;23.330;2022-09-09T06:45:58;21.80;75.80
46562;DHT22;32289;42.688;23.330;2022-09-09T06:49:39;22.10;75.50
46562;DHT22;32289;42.688;23.330;2022-09-09T06:53:19;23.70;70.40
46562;DHT22;32289;42.688;23.330;2022-09-09T06:57:01;23.70;68.30
46562;DHT22;32289;42.688;23.330;2022-09-09T07:00:43;23.60;69.50
46562;DHT22;32289;42.688;23.330;2022-09-09T07:04:23;24.20;66.00
46562;DHT22;32289;42.688;23.330;2022-09-09T07:08:05;24.60;65.30
46562;DHT22;32289;42.688;23.330;2022-09-09T07:11:51;24.10;67.20
46562;DHT22;32289;42.688;23.330;2022-09-09T07:15:34;25.70;63.50
46562;DHT22;32289;42.688;23.330;2022-09-09T07:19:15;25.60;61.80
46562;DHT22;32289;42.688;23.330;2022-09-09T07:22:56;26.20;59.40
46562;DHT22;32289;42.688;23.330;2022-09-09T07:26:38;27.90;57.10
46562;DHT22;32289;42.688;23.330;2022-09-09T07:30:19;28.10;56.00
46562;DHT22;32289;42.688;23.330;2022-09-09T07:34:01;27.40;58.50
46562;DHT22;32289;42.688;23.330;2022-09-09T07:37:41;27.00;58.60
46562;DHT22;32289;42.688;23.330;2022-09-09T07:41:28;27.20;56.50
46562;DHT22;32289;42.688;23.330;2022-09-09T07:45:08;26.60;59.40
46562;DHT22;32289;42.688;23.330;2022-09-09T07:48:52;26.60;59.00
46562;DHT22;32289;42.688;23.330;2022-09-09T07:52:34;27.40;57.80
46562;DHT22;32289;42.688;23.330;2022-09-09T07:56:16;27.40;57.80
46562;DHT22;32289;42.688;23.330;2022-09-09T07:59:57;27.50;57.70
46562;DHT22;32289;42.688;23.330;2022-09-09T08:03:38;29.30;54.10
46562;DHT22;32289;42.688;23.330;2022-09-09T08:07:19;27.90;56.70
46562;DHT22;32289;42.688;23.330;2022-09-09T08:11:07;28.80;56.30
46562;DHT22;32289;42.688;23.330;2022-09-09T08:14:49;30.80;49.80
46562;DHT22;32289;42.688;23.330;2022-09-09T08:18:29;30.10;52.30
46562;DHT22;32289;42.688;23.330;2022-09-09T08:22:10;28.80;54.80
46562;DHT22;32289;42.688;23.330;2022-09-09T08:25:51;30.00;53.30
46562;DHT22;32289;42.688;23.330;2022-09-09T08:29:31;29.00;54.10
46562;DHT22;32289;42.688;23.330;2022-09-09T08:33:12;28.80;54.80
46562;DHT22;32289;42.688;23.330;2022-09-09T08:36:53;26.90;57.80
46562;DHT22;32289;42.688;23.330;2022-09-09T08:40:37;26.90;57.50
46562;DHT22;32289;42.688;23.330;2022-09-09T08:48:57;27.10;57.20
46562;DHT22;32289;42.688;23.330;2022-09-09T08:56:48;26.60;60.60
46562;DHT22;32289;42.688;23.330;2022-09-09T09:05:18;28.40;54.10
46562;DHT22;32289;42.688;23.330;2022-09-09T09:09:40;28.70;54.80
46562;DHT22;32289;42.688;23.330;2022-09-09T09:14:03;27.30;57.80
46562;DHT22;32289;42.688;23.330;2022-09-09T09:17:47;28.00;56.90
46562;DHT22;32289;42.688;23.330;2022-09-09T09:21:39;28.50;56.30
46562;DHT22;32289;42.688;23.330;2022-09-09T09:25:25;27.20;58.20
46562;DHT22;32289;42.688;23.330;2022-09-09T09:29:17;26.20;60.50
46562;DHT22;32289;42.688;23.330;2022-09-09T09:32:59;26.70;59.30
46562;DHT22;32289;42.688;23.330;2022-09-09T09:36:45;27.80;57.60
46562;DHT22;32289;42.688;23.330;2022-09-09T09:40:27;26.40;60.70
46562;DHT22;32289;42.688;23.330;2022-09-09T09:48:11;27.00;59.90
46562;DHT22;32289;42.688;23.330;2022-09-09T09:51:52;26.90;60.20
46562;DHT22;32289;42.688;23.330;2022-09-09T09:55:35;27.60;58.00
46562;DHT22;32289;42.688;23.330;2022-09-09T09:59:35;26.80;58.60
46562;DHT22;32289;42.688;23.330;2022-09-09T10:03:29;26.20;61.40
46562;DHT22;32289;42.688;23.330;2022-09-09T10:07:12;26.20;60.60
46562;DHT22;32289;42.688;23.330;2022-09-09T10:19:04;26.10;61.80
46562;DHT22;32289;42.688;23.330;2022-09-09T10:31:16;25.70;63.20
46562;DHT22;32289;42.688;23.330;2022-09-09T10:39:04;26.00;63.60
46562;DHT22;32289;42.688;23.330;2022-09-09T10:42:45;25.50;63.20
46562;DHT22;32289;42.688;23.330;2022-09-09T10:50:51;25.40;64.10
46562;DHT22;32289;42.688;23.330;2022-09-09T10:59:02;25.30;65.20
46562;DHT22;32289;42.688;23.330;2022-09-09T11:02:53;25.40;64.90
46562;DHT22;32289;42.688;23.330;2022-09-09T11:06:39;25.30;66.80
46562;DHT22;32289;42.688;23.330;2022-09-09T11:10:24;25.40;66.00
46562;DHT22;32289;42.688;23.330;2022-09-09T11:18:14;25.30;66.30
46562;DHT22;32289;42.688;23.330;2022-09-09T11:21:58;25.60;65.90
46562;DHT22;32289;42.688;23.330;2022-09-09T11:25:51;26.00;65.80
46562;DHT22;32289;42.688;23.330;2022-09-09T11:33:54;26.10;65.30
46562;DHT22;32289;42.688;23.330;2022-09-09T11:38:03;25.80;66.30
46562;DHT22;32289;42.688;23.330;2022-09-09T11:41:46;25.60;66.60
46562;DHT22;32289;42.688;23.330;2022-09-09T11:45:27;25.50;68.20
46562;DHT22;32289;42.688;23.330;2022-09-09T11:49:30;25.80;67.20
46562;DHT22;32289;42.688;23.330;2022-09-09T11:53:21;25.80;68.50
46562;DHT22;32289;42.688;23.330;2022-09-09T11:57:04;25.70;67.20
46562;DHT22;32289;42.688;23.330;2022-09-09T12:00:47;25.70;68.00
46562;DHT22;32289;42.688;23.330;2022-09-09T12:04:32;26.20;67.40
46562;DHT22;32289;42.688;23.330;2022-09-09T12:08:18;26.70;64.90
46562;DHT22;32289;42.688;23.330;2022-09-09T12:12:07;27.20;64.50
46562;DHT22;32289;42.688;23.330;2022-09-09T12:15:49;26.70;65.70
46562;DHT22;32289;42.688;23.330;2022-09-09T12:19:30;26.50;66.10
46562;DHT22;32289;42.688;23.330;2022-09-09T12:35:26;27.10;64.80
46562;DHT22;32289;42.688;23.330;2022-09-09T12:39:20;27.40;65.20
46562;DHT22;32289;42.688;23.330;2022-09-09T12:43:19;27.00;65.30
46562;DHT22;32289;42.688;23.330;2022-09-09T12:47:01;26.50;66.60
46562;DHT22;32289;42.688;23.330;2022-09-09T12:50:53;26.60;67.40
46562;DHT22;32289;42.688;23.330;2022-09-09T12:54:37;26.50;68.90
46562;DHT22;32289;42.688;23.330;2022-09-09T12:58:18;26.40;67.50
46562;DHT22;32289;42.688;23.330;2022-09-09T13:02:00;26.70;66.90
46562;DHT22;32289;42.688;23.330;2022-09-09T13:05:41;27.20;65.80
46562;DHT22;32289;42.688;23.330;2022-09-09T13:09:22;27.10;66.60
46562;DHT22;32289;42.688;23.330;2022-09-09T13:13:03;26.90;66.20
46562;DHT22;32289;42.688;23.330;2022-09-09T13:16:58;26.80;67.60
46562;DHT22;32289;42.688;23.330;2022-09-09T13:20:39;26.90;66.90
46562;DHT22;32289;42.688;23.330;2022-09-09T13:28:27;26.60;68.00
46562;DHT22;32289;42.688;23.330;2022-09-09T13:32:18;26.70;67.20
46562;DHT22;32289;42.688;23.330;2022-09-09T13:36:08;26.80;66.30
46562;DHT22;32289;42.688;23.330;2022-09-09T13:39:53;26.80;67.90
46562;DHT22;32289;42.688;23.330;2022-09-09T13:43:47;26.70;66.80
46562;DHT22;32289;42.688;23.330;2022-09-09T13:47:35;26.50;67.70
46562;DHT22;32289;42.688;23.330;2022-09-09T13:55:25;26.50;68.40
46562;DHT22;32289;42.688;23.330;2022-09-09T13:59:11;26.50;67.50
46562;DHT22;32289;42.688;23.330;2022-09-09T14:02:52;26.60;68.00
46562;DHT22;32289;42.688;23.330;2022-09-09T14:06:36;26.60;67.90
46562;DHT22;32289;42.688;23.330;2022-09-09T14:10:19;26.70;67.20
46562;DHT22;32289;42.688;23.330;2022-09-09T14:14:00;26.80;66.80
46562;DHT22;32289;42.688;23.330;2022-09-09T14:17:41;26.60;68.00
46562;DHT22;32289;42.688;23.330;2022-09-09T14:21:23;26.50;68.20
46562;DHT22;32289;42.688;23.330;2022-09-09T14:25:04;26.40;67.00
46562;DHT22;32289;42.688;23.330;2022-09-09T14:28:45;26.10;68.20
46562;DHT22;32289;42.688;23.330;2022-09-09T14:32:27;26.10;67.90
46562;DHT22;32289;42.688;23.330;2022-09-09T14:36:08;26.10;67.70
46562;DHT22;32289;42.688;23.330;2022-09-09T14:39:49;26.00;67.70
46562;DHT22;32289;42.688;23.330;2022-09-09T14:43:30;26.00;68.10
46562;DHT22;32289;42.688;23.330;2022-09-09T14:47:12;25.80;68.80
46562;DHT22;32289;42.688;23.330;2022-09-09T14:50:53;25.80;68.90
46562;DHT22;32289;42.688;23.330;2022-09-09T14:54:35;25.80;68.60
46562;DHT22;32289;42.688;23.330;2022-09-09T14:58:16;25.60;69.70
46562;DHT22;32289;42.688;23.330;2022-09-09T15:01:56;25.50;69.10
46562;DHT22;32289;42.688;23.330;2022-09-09T15:05:37;25.30;69.90
46562;DHT22;32289;42.688;23.330;2022-09-09T15:09:18;25.20;70.10
46562;DHT22;32289;42.688;23.330;2022-09-09T15:12:59;25.20;70.30
46562;DHT22;32289;42.688;23.330;2022-09-09T15:16:39;25.00;72.40
46562;DHT22;32289;42.688;23.330;2022-09-09T15:20:20;25.30;69.90
46562;DHT22;32289;42.688;23.330;2022-09-09T15:24:01;25.30;70.40
46562;DHT22;32289;42.688;23.330;2022-09-09T15:27:43;25.30;72.00
46562;DHT22;32289;42.688;23.330;2022-09-09T15:31:28;25.20;70.90
46562;DHT22;32289;42.688;23.330;2022-09-09T15:35:09;25.30;72.70
46562;DHT22;32289;42.688;23.330;2022-09-09T15:38:50;24.90;73.20
46562;DHT22;32289;42.688;23.330;2022-09-09T15:42:31;25.00;74.70
46562;DHT22;32289;42.688;23.330;2022-09-09T15:46:37;24.90;74.00
46562;DHT22;32289;42.688;23.330;2022-09-09T15:50:18;24.90;73.10
46562;DHT22;32289;42.688;23.330;2022-09-09T15:53:59;24.60;75.20
46562;DHT22;32289;42.688;23.330;2022-09-09T15:57:40;24.50;76.40
46562;DHT22;32289;42.688;23.330;2022-09-09T16:01:21;24.50;78.50
46562;DHT22;32289;42.688;23.330;2022-09-09T16:05:01;24.20;81.10
46562;DHT22;32289;42.688;23.330;2022-09-09T16:08:44;24.10;77.70
46562;DHT22;32289;42.688;23.330;2022-09-09T16:12:25;24.20;82.40
46562;DHT22;32289;42.688;23.330;2022-09-09T16:16:07;24.20;79.80
46562;DHT22;32289;42.688;23.330;2022-09-09T16:19:47;24.10;81.70
46562;DHT22;32289;42.688;23.330;2022-09-09T16:23:28;23.90;82.40
46562;DHT22;32289;42.688;23.330;2022-09-09T16:27:11;23.90;83.90
46562;DHT22;32289;42.688;23.330;2022-09-09T16:30:52;23.80;85.30
46562;DHT22;32289;42.688;23.330;2022-09-09T16:34:33;23.40;86.80
46562;DHT22;32289;42.688;23.330;2022-09-09T16:38:14;23.30;85.40
46562;DHT22;32289;42.688;23.330;2022-09-09T16:41:55;23.40;88.00
46562;DHT22;32289;42.688;23.330;2022-09-09T16:45:44;23.30;88.70
46562;DHT22;32289;42.688;23.330;2022-09-09T16:49:24;23.00;90.10
46562;DHT22;32289;42.688;23.330;2022-09-09T16:53:06;23.00;90.60
46562;DHT22;32289;42.688;23.330;2022-09-09T16:56:48;22.90;90.40
46562;DHT22;32289;42.688;23.330;2022-09-09T17:00:29;22.80;92.20
46562;DHT22;32289;42.688;23.330;2022-09-09T17:04:19;22.90;90.30
46562;DHT22;32289;42.688;23.330;2022-09-09T17:08:04;23.00;90.80
46562;DHT22;32289;42.688;23.330;2022-09-09T17:11:46;23.00;90.70
46562;DHT22;32289;42.688;23.330;2022-09-09T17:15:27;23.00;90.90
46562;DHT22;32289;42.688;23.330;2022-09-09T17:19:10;23.00;90.00
46562;DHT22;32289;42.688;23.330;2022-09-09T17:22:51;22.60;91.00
46562;DHT22;32289;42.688;23.330;2022-09-09T17:26:32;22.50;91.50
46562;DHT22;32289;42.688;23.330;2022-09-09T17:30:18;22.40;91.50
46562;DHT22;32289;42.688;23.330;2022-09-09T17:33:59;22.30;91.20
46562;DHT22;32289;42.688;23.330;2022-09-09T17:37:40;22.50;93.00
46562;DHT22;32289;42.688;23.330;2022-09-09T17:41:24;22.40;91.30
46562;DHT22;32289;42.688;23.330;2022-09-09T17:45:05;22.60;91.10
46562;DHT22;32289;42.688;23.330;2022-09-09T17:48:48;22.40;91.60
46562;DHT22;32289;42.688;23.330;2022-09-09T17:52:29;22.20;91.90
46562;DHT22;32289;42.688;23.330;2022-09-09T17:56:13;22.40;91.80
46562;DHT22;32289;42.688;23.330;2022-09-09T17:59:54;22.20;91.50
46562;DHT22;32289;42.688;23.330;2022-09-09T18:03:37;22.20;91.80
46562;DHT22;32289;42.688;23.330;2022-09-09T18:07:17;22.00;92.10
46562;DHT22;32289;42.688;23.330;2022-09-09T18:10:58;21.80;93.10
46562;DHT22;32289;42.688;23.330;2022-09-09T18:14:40;21.80;93.60
46562;DHT22;32289;42.688;23.330;2022-09-09T18:18:21;21.70;94.00
46562;DHT22;32289;42.688;23.330;2022-09-09T18:22:05;21.70;94.20
46562;DHT22;32289;42.688;23.330;2022-09-09T18:25:46;21.90;93.80
46562;DHT22;32289;42.688;23.330;2022-09-09T18:29:27;21.80;94.10
46562;DHT22;32289;42.688;23.330;2022-09-09T18:33:09;21.90;94.40
46562;DHT22;32289;42.688;23.330;2022-09-09T18:36:51;22.20;93.60
46562;DHT22;32289;42.688;23.330;2022-09-09T18:40:35;22.10;93.40
46562;DHT22;32289;42.688;23.330;2022-09-09T18:44:24;22.10;92.90
46562;DHT22;32289;42.688;23.330;2022-09-09T18:48:06;22.10;92.00
46562;DHT22;32289;42.688;23.330;2022-09-09T18:51:47;22.10;91.20
46562;DHT22;32289;42.688;23.330;2022-09-09T18:55:28;22.30;91.20
46562;DHT22;32289;42.688;23.330;2022-09-09T18:59:12;22.20;92.10
46562;DHT22;32289;42.688;23.330;2022-09-09T19:02:53;22.30;92.70
46562;DHT22;32289;42.688;23.330;2022-09-09T19:06:38;22.40;92.00
46562;DHT22;32289;42.688;23.330;2022-09-09T19:10:19;22.20;92.20
46562;DHT22;32289;42.688;23.330;2022-09-09T19:14:03;22.10;91.90
46562;DHT22;32289;42.688;23.330;2022-09-09T19:17:44;22.10;92.80
46562;DHT22;32289;42.688;23.330;2022-09-09T19:21:27;22.00;93.20
46562;DHT22;32289;42.688;23.330;2022-09-09T19:25:08;22.10;93.00
46562;DHT22;32289;42.688;23.330;2022-09-09T19:28:49;22.00;92.40
46562;DHT22;32289;42.688;23.330;2022-09-09T19:32:31;21.80;90.80
46562;DHT22;32289;42.688;23.330;2022-09-09T19:36:14;21.70;91.40
46562;DHT22;32289;42.688;23.330;2022-09-09T19:39:57;21.70;91.20
46562;DHT22;32289;42.688;23.330;2022-09-09T19:43:39;21.70;92.10
46562;DHT22;32289;42.688;23.330;2022-09-09T19:47:20;21.70;91.80
46562;DHT22;32289;42.688;23.330;2022-09-09T19:51:04;21.80;91.50
46562;DHT22;32289;42.688;23.330;2022-09-09T19:54:45;21.70;91.80
46562;DHT22;32289;42.688;23.330;2022-09-09T19:58:26;21.80;91.90
46562;DHT22;32289;42.688;23.330;2022-09-09T20:02:10;21.70;92.00
46562;DHT22;32289;42.688;23.330;2022-09-09T20:05:51;21.70;91.90
46562;DHT22;32289;42.688;23.330;2022-09-09T20:09:33;21.60;92.10
46562;DHT22;32289;42.688;23.330;2022-09-09T20:13:13;21.40;93.20
46562;DHT22;32289;42.688;23.330;2022-09-09T20:16:55;21.30;94.10
46562;DHT22;32289;42.688;23.330;2022-09-09T20:20:40;21.30;94.30
46562;DHT22;32289;42.688;23.330;2022-09-09T20:24:21;21.30;94.60
46562;DHT22;32289;42.688;23.330;2022-09-09T20:28:03;21.20;93.80
46562;DHT22;32289;42.688;23.330;2022-09-09T20:31:44;21.30;93.40
46562;DHT22;32289;42.688;23.330;2022-09-09T20:35:27;21.50;94.40
46562;DHT22;32289;42.688;23.330;2022-09-09T20:39:10;21.50;94.20
46562;DHT22;32289;42.688;23.330;2022-09-09T20:42:51;21.40;93.20
46562;DHT22;32289;42.688;23.330;2022-09-09T20:46:36;21.10;93.60
46562;DHT22;32289;42.688;23.330;2022-09-09T20:50:18;21.00;94.40
46562;DHT22;32289;42.688;23.330;2022-09-09T20:53:59;21.00;95.40
46562;DHT22;32289;42.688;23.330;2022-09-09T20:57:41;21.10;95.40
46562;DHT22;32289;42.688;23.330;2022-09-09T21:01:22;20.90;95.60
46562;DHT22;32289;42.688;23.330;2022-09-09T21:05:03;20.70;96.00
46562;DHT22;32289;42.688;23.330;2022-09-09T21:08:44;20.80;96.30
46562;DHT22;32289;42.688;23.330;2022-09-09T21:12:25;20.80;96.80
46562;DHT22;32289;42.688;23.330;2022-09-09T21:16:08;20.70;96.80
46562;DHT22;32289;42.688;23.330;2022-09-09T21:19:50;20.50;97.30
46562;DHT22;32289;42.688;23.330;2022-09-09T21:23:30;20.30;97.90
46562;DHT22;32289;42.688;23.330;2022-09-09T21:27:11;20.20;98.70
46562;DHT22;32289;42.688;23.330;2022-09-09T21:30:53;20.10;99.30
46562;DHT22;32289;42.688;23.330;2022-09-09T21:34:35;20.00;99.90
46562;DHT22;32289;42.688;23.330;2022-09-09T21:38:18;20.10;99.90
46562;DHT22;32289;42.688;23.330;2022-09-09T21:41:59;20.10;99.20
46562;DHT22;32289;42.688;23.330;2022-09-09T21:45:42;20.10;99.30
46562;DHT22;32289;42.688;23.330;2022-09-09T21:49:23;20.00;99.90
46562;DHT22;32289;42.688;23.330;2022-09-09T21:53:04;19.70;99.90
46562;DHT22;32289;42.688;23.330;2022-09-09T21:56:44;19.80;99.90
46562;DHT22;32289;42.688;23.330;2022-09-09T22:00:29;19.90;99.90
46562;DHT22;32289;42.688;23.330;2022-09-09T22:04:10;20.00;99.90
46562;DHT22;32289;42.688;23.330;2022-09-09T22:07:50;20.10;99.90
46562;DHT22;32289;42.688;23.330;2022-09-09T22:11:32;20.10;99.90
46562;DHT22;32289;42.688;23.330;2022-09-09T22:15:14;19.90;99.90
46562;DHT22;32289;42.688;23.330;2022-09-09T22:18:57;20.00;99.90
46562;DHT22;32289;42.688;23.330;2022-09-09T22:22:38;20.00;99.90
46562;DHT22;32289;42.688;23.330;2022-09-09T22:26:19;19.80;99.90
46562;DHT22;32289;42.688;23.330;2022-09-09T22:29:59;19.90;99.90
46562;DHT22;32289;42.688;23.330;2022-09-09T22:33:40;19.70;99.90
46562;DHT22;32289;42.688;23.330;2022-09-09T22:37:21;19.80;99.90
46562;DHT22;32289;42.688;23.330;2022-09-09T22:41:03;19.80;99.90
46562;DHT22;32289;42.688;23.330;2022-09-09T22:44:44;19.70;99.90
46562;DHT22;32289;42.688;23.330;2022-09-09T22:48:25;19.70;99.90
46562;DHT22;32289;42.688;23.330;2022-09-09T22:52:07;19.70;99.90
46562;DHT22;32289;42.688;23.330;2022-09-09T22:55:58;19.60;99.90
46562;DHT22;32289;42.688;23.330;2022-09-09T22:59:39;19.40;99.90
46562;DHT22;32289;42.688;23.330;2022-09-09T23:03:20;19.60;99.90
46562;DHT22;32289;42.688;23.330;2022-09-09T23:07:01;19.60;99.90
46562;DHT22;32289;42.688;23.330;2022-09-09T23:10:42;19.60;99.90
46562;DHT22;32289;42.688;23.330;2022-09-09T23:14:23;19.60;99.90
46562;DHT22;32289;42.688;23.330;2022-09-09T23:18:04;19.60;99.90
46562;DHT22;32289;42.688;23.330;2022-09-09T23:21:45;19.60;99.90
46562;DHT22;32289;42.688;23.330;2022-09-09T23:25:27;19.60;99.90
46562;DHT22;32289;42.688;23.330;2022-09-09T23:29:08;19.50;99.90
46562;DHT22;32289;42.688;23.330;2022-09-09T23:32:53;19.50;99.90
46562;DHT22;32289;42.688;23.330;2022-09-09T23:36:34;19.50;99.90
46562;DHT22;32289;42.688;23.330;2022-09-09T23:40:14;19.50;99.90
46562;DHT22;32289;42.688;23.330;2022-09-09T23:43:56;19.50;99.90
46562;DHT22;32289;42.688;23.330;2022-09-09T23:47:37;19.50;99.90
46562;DHT22;32289;42.688;23.330;2022-09-09T23:51:20;19.50;99.90
46562;DHT22;32289;42.688;23.330;2022-09-09T23:55:03;19.50;99.90
46562;DHT22;32289;42.688;23.330;2022-09-09T23:58:46;19.30;99.90
